Tiempo atmosférico en la estación meteorológica de Cuéllar, Segovia (795 m.)



Fecha
DESCASC
Temp. máxima en grados centígrados (hora)
DESCASC
Temp. mínima en grados centígrados (hora)
DESCASC
Temp. media en grados centígrados
DESCASC
Racha de viento máxima en m/sg (hora)
DESCASC
Velocidad máxima media en intervalos de 10 minutos(hora)
DESCASC
Precipitaciones diarias en mm
DESCASC
Precipitaciones de 00:00 a 06:00 en mm
DESCASC
Precipitaciones de 06:00 a 12:00 en mm
DESCASC
Precipitaciones de 12:00 a 18:00 en mm
DESCASC
Precipitaciones de 18:00 a 24:00 en mm
DESCASC
31-03-2020 12.5 (19:20) -0.8 (07:00) 5.8 11.11 (08:30) 8.06 (08:20) 2.8 0 0 1.4 1.4
29-03-2020 18.1 (16:50) -4 (-00:0) 7.1 13.61 (23:10) 9.72 (23:00) 0 0 0 0 0
28-03-2020 18.1 (17:50) -6 (-00:0) 6.1 6.39 (16:00) 3.61 (16:20) 0 0 0 0 0
27-03-2020 13.9 (18:20) -2.3 (-00:0) 5.8 10.83 (13:40) 6.67 (11:00) 0 0 0 0 0
26-03-2020 12.5 (16:10) -5.9 (-00:0) 3.3 10.56 (23:40) 7.78 (23:40) 0 0 0 0 0
25-03-2020 17.8 (18:30) -2.9 (-00:0) 7.4 8.06 (23:30) 5.56 (23:30) 0 0 0 0 0
24-03-2020 16.2 (14:50) 4 (00:00) 10.1 10.56 (16:20) 7.22 (15:10) 0 0 0 0 0
23-03-2020 15.8 (15:30) 3.9 (00:00) 9.9 10.56 (15:50) 7.78 (15:50) 2.6 0 0 0.2 2.4
22-03-2020 15.8 (16:00) 5.8 (04:20) 10.8 12.22 (16:20) 7.5 (16:30) 1 1 0 0 0
21-03-2020 14.6 (13:10) 0.8 (00:00) 7.7 6.94 (11:20) 4.72 (09:10) 2.2 0 0 0.8 1.4
20-03-2020 17.4 (15:30) 4.3 (00:00) 10.8 7.78 (16:30) 5 (16:20) 0 0 0 0 0
19-03-2020 17.4 (15:40) 3.3 (00:00) 10.3 3.33 (13:00) 2.22 (00:10) 0 0 0 0 0
18-03-2020 20.7 (16:30) 5.8 (00:00) 13.3 6.67 (04:10) 4.72 (03:10) 0 0 0 0 0
17-03-2020 17.2 (15:50) 4.8 (00:00) 11 13.61 (12:30) 10 (12:30) 2.6 2.2 0.4 0 0
16-03-2020 6.5 (17:10) 1.3 (00:00) 3.9 18.61 (14:30) 13.89 (14:40) 11.6 0.2 6.2 4.4 0.8
15-03-2020 20.2 (15:30) -3.9 (-00:0) 8.2 15 (16:40) 8.61 (16:50) 0 0 0 0 0
14-03-2020 19.8 (16:00) -4.4 (-00:0) 7.7 5.28 (13:40) 3.33 (14:00) 0 0 0 0 0
13-03-2020 18.9 (16:30) 2 (23:59) 10.4 9.44 (18:30) 6.67 (08:00) 0 0 0 0 0
12-03-2020 24.5 (15:30) 3.6 (00:00) 14 11.67 (23:10) 8.61 (23:10) 0 0 0 0 0
11-03-2020 24.2 (15:50) -0.8 (-00:0) 11.7 5.83 (15:30) 3.61 (15:30) 0 0 0 0 0
10-03-2020 22.3 (17:20) -2 (-00:0) 10.1 6.39 (17:40) 3.89 (17:40) 0 0 0 0 0
09-03-2020 15 (16:50) 0.3 (00:00) 7.7 9.44 (15:00) 4.72 (15:50) 0 0 0 0 0
08-03-2020 14.1 (17:40) -5.4 (-00:0) 4.4 10.28 (13:10) 5 (12:30) 0 0 0 0 0
07-03-2020 14.4 (17:00) -5.6 (-00:0) 4.4 5.28 (15:10) 3.06 (15:00) 0 0 0 0 0
06-03-2020 10.1 (15:50) -1.2 (-00:0) 4.5 15.28 (11:10) 9.17 (14:00) 0 0 0 0 0
05-03-2020 12.5 (17:20) 5.3 (00:00) 8.9 17.5 (10:00) 9.17 (13:50) 1 0 1 0 0
04-03-2020 13.6 (14:40) 9.8 (09:50) 11.7 8.89 (02:40) 5 (12:10) 0 0 0 0 0
03-03-2020 15.9 (16:10) 3.3 (00:00) 9.6 16.94 (15:30) 10.28 (16:00) 2.4 0.8 1.2 0.4 0

Gráficas

Temp. máximas Temp. mínimas Temp. medias Precipitaciones Rachas de viento máximas Velocidades máximas media en intervalos de 10 minutos

Datos horarios

Fecha y hora oficial Temperatura (ºC) Velocidad del viento (km/h) Dirección del viento Racha (km/h) Dirección de racha Precipitación (mm) Presión (hPa) Tendencia (hPa) Humedad (%)
2020-04-01 23:00:00 6 13 Norte 17 Norte 0 -- -- 96
2020-04-01 22:00:00 6.7 5 Nordeste 8 Nordeste 0 -- -- 91
2020-04-01 21:00:00 7.8 6 Este 14 Nordeste 0 -- -- 90
2020-04-01 20:00:00 8.7 12 Nordeste 21 Norte 0 -- -- 85
2020-04-01 19:00:00 10.4 13 Norte 18 Nordeste 0.2 -- -- 77
2020-04-01 18:00:00 8.8 10 Sudoeste 23 Sur 0.2 -- -- 76
2020-04-01 17:00:00 11.5 9 Norte 13 Norte 0 -- -- 72
2020-04-01 16:00:00 9.8 5 Noroeste 17 Oeste 0.2 -- -- 80
2020-04-01 15:00:00 8.4 10 Oeste 22 Oeste 0.4 -- -- 88
2020-04-01 14:00:00 12 9 Nordeste 20 Nordeste 0 -- -- 61
2020-04-01 13:00:00 12.9 10 Nordeste 18 Nordeste 0 -- -- 63
2020-04-01 12:00:00 10.4 10 Este 22 Este 0 -- -- 77
2020-04-01 11:00:00 7.8 11 Nordeste 14 Nordeste 0 -- -- 87
2020-04-01 10:00:00 5.3 4 Este 6 Este 0 -- -- 97
2020-04-01 09:00:00 4.3 3 Este 9 Nordeste 0 -- -- 96
2020-04-01 08:00:00 3 4 Este 12 Este 0 -- -- 96
2020-04-01 07:00:00 4.7 0 Calma 7 Nordeste 0 -- -- 95
2020-04-01 06:00:00 5.9 7 Nordeste 12 Nordeste 0.6 -- -- 94
2020-04-01 05:00:00 5.9 5 Este 12 Este 1 -- -- 96
2020-04-01 04:00:00 5.6 8 Nordeste 13 Nordeste 0 -- -- 95
2020-04-01 03:00:00 5.8 9 Nordeste 13 Nordeste 0 -- -- 96
2020-04-01 02:00:00 5.2 8 Este 10 Este 0 -- -- 96
2020-04-01 01:00:00 6 8 Nordeste 13 Nordeste 0 -- -- 94
2020-04-01 00:00:00 6.1 7 Nordeste 11 Nordeste 1.2 -- -- 95
2020-03-31 23:00:00 6.4 9 Este 20 Nordeste 0.2 -- -- 90
2020-03-31 22:00:00 6.7 13 Este 27 Nordeste 0 -- -- 87
2020-03-31 21:00:00 7.2 15 Nordeste 28 Nordeste 0 -- -- 84
2020-03-31 20:00:00 8.6 23 Este 36 Este 0 -- -- 79
2020-03-31 19:00:00 11.3 16 Este 26 Este 0 -- -- 71
2020-03-31 18:00:00 9.1 18 Este 25 Este 0.6 -- -- 84
2020-03-31 17:00:00 8 22 Este 36 Nordeste 0.8 -- -- 84
2020-03-31 16:00:00 11.2 26 Este 37 Nordeste 0 -- -- 63
2020-03-31 15:00:00 9.7 25 Nordeste 36 Nordeste 0 -- -- 67
2020-03-31 14:00:00 7.7 25 Este 36 Este 0 -- -- 73
2020-03-31 13:00:00 5.6 23 Este 37 Nordeste 0 -- -- 79
2020-03-31 12:00:00 4.5 21 Nordeste 29 Nordeste 0 -- -- 81
2020-03-31 11:00:00 2.4 18 Nordeste 32 Nordeste 0 -- -- 84
2020-03-31 10:00:00 1.1 23 Nordeste 37 Nordeste 0 -- -- 85
2020-03-31 09:00:00 -0.1 28 Nordeste 40 Nordeste 0 -- -- 86
2020-03-31 08:00:00 -0.7 23 Nordeste 37 Nordeste 0 -- -- 87
2020-03-31 07:00:00 -0.8 22 Nordeste 32 Nordeste 0 -- -- 86
2020-03-31 06:00:00 -0.3 25 Nordeste 36 Nordeste 0 -- -- 87
2020-03-31 05:00:00 -0.5 25 Nordeste 36 Nordeste 0 -- -- 93
2020-03-31 04:00:00 -0.4 26 Nordeste 35 Nordeste 0 -- -- 95
2020-03-31 03:00:00 -0.3 23 Nordeste 32 Nordeste 0 -- -- 96
2020-03-31 02:00:00 0.1 20 Nordeste 36 Nordeste 0 -- -- 92
2020-03-31 01:00:00 1.7 21 Nordeste 40 Nordeste 0 -- -- 68
2020-03-31 00:00:00 1.7 27 Nordeste 39 Norte 0 -- -- 62
2020-03-30 23:00:00 1.9 27 Nordeste 43 Norte 0 -- -- 63
2020-03-30 22:00:00 2.7 32 Nordeste 46 Norte 0 -- -- 56
2020-03-30 21:00:00 3.3 23 Nordeste 35 Nordeste 0 -- -- 51
2020-03-30 20:00:00 4.1 24 Norte 35 Nordeste 0 -- -- 48
2020-03-30 19:00:00 4.7 25 Norte 36 Nordeste 0 -- -- 46
2020-03-30 18:00:00 5.9 22 Norte 39 Norte 0 -- -- 47
2020-03-30 17:00:00 6.5 25 Nordeste 43 Nordeste 0 -- -- 41
2020-03-30 16:00:00 7.5 23 Nordeste 37 Nordeste 0 -- -- 43
2020-03-30 15:00:00 6.2 22 Nordeste 36 Nordeste 0 -- -- 47
2020-03-30 14:00:00 3.4 22 Norte 39 Nordeste 0 -- -- 59
2020-03-30 13:00:00 3.1 32 Norte 41 Norte 0 -- -- 58
2020-03-30 12:00:00 3 25 Norte 36 Norte 0 -- -- 61
2020-03-30 11:00:00 1.9 26 Nordeste 39 Norte 0 -- -- 67
2020-03-30 10:00:00 1.8 17 Nordeste 43 Nordeste 0 -- -- 68
2020-03-30 09:00:00 1.4 24 Nordeste 36 Nordeste 0 -- -- 70
2020-03-30 08:00:00 1.5 22 Norte 42 Norte 0 -- -- 74
2020-03-30 07:00:00 1.8 25 Nordeste 41 Norte 0.2 -- -- 81
2020-03-30 06:00:00 2.2 13 Norte 39 Norte 0 -- -- 85
2020-03-30 05:00:00 3.3 22 Nordeste 35 Nordeste 0 -- -- 76
2020-03-30 04:00:00 3.6 22 Nordeste 40 Nordeste 0 -- -- 77
2020-03-30 03:00:00 4.7 18 Nordeste 41 Nordeste 0 -- -- 78
2020-03-30 02:00:00 5.3 30 Nordeste 42 Nordeste 0 -- -- 74
2020-03-30 01:00:00 5.5 24 Nordeste 40 Nordeste 0 -- -- 76
2020-03-30 00:00:00 5.9 33 Nordeste 49 Norte 0 -- -- 77
2020-03-29 23:00:00 6.7 35 Norte 47 Norte 0 -- -- 73
2020-03-29 22:00:00 7.8 31 Norte 47 Norte 0 -- -- 67
2020-03-29 21:00:00 9.7 27 Norte 35 Norte 0 -- -- 52
2020-03-29 20:00:00 13.1 21 Nordeste 30 Norte 0 -- -- 43
2020-03-29 19:00:00 16.2 14 Norte 27 Nordeste 0 -- -- 37
2020-03-29 18:00:00 16.9 13 Norte 24 Norte 0 -- -- 37
2020-03-29 17:00:00 17.8 12 Norte 29 Nordeste 0 -- -- 34
2020-03-29 16:00:00 17.5 8 Nordeste 20 Nordeste 0 -- -- 35
2020-03-29 15:00:00 16.6 11 Norte 26 Norte 0 -- -- 37
2020-03-29 14:00:00 16.4 9 Norte 16 Norte 0 -- -- 44
2020-03-29 13:00:00 15.3 4 Oeste 11 Oeste 0 -- -- 46
2020-03-29 12:00:00 13.3 4 Sudoeste 17 Oeste 0 -- -- 51
2020-03-29 11:00:00 10.2 2 Sur 4 Este 0 -- -- 57
2020-03-29 10:00:00 5.8 3 Sudeste 5 Este 0 -- -- 72
2020-03-29 09:00:00 0.3 0 Calma 5 Este 0 -- -- 87
2020-03-29 08:00:00 -3.5 4 Este 5 Este 0 -- -- 96
2020-03-29 07:00:00 -3.8 3 Este 4 Este 0 -- -- 95
2020-03-29 06:00:00 -3.4 2 Este 4 Este 0 -- -- 95
2020-03-29 05:00:00 -3.2 4 Este 7 Este 0 -- -- 94
2020-03-29 03:00:00 -1.8 4 Este 10 Este 0 -- -- 93
2020-03-29 01:00:00 -0.9 2 Este 3 Norte 0 -- -- 89
2020-03-29 00:00:00 0.1 0 Calma 7 Nordeste 0 -- -- 87
2020-03-28 23:00:00 2 8 Sudeste 16 Sur 0 -- -- 84
2020-03-28 22:00:00 3.1 0 Calma 6 Sur 0 -- -- 77
2020-03-28 21:00:00 5.3 0 Calma 5 Sudeste 0 -- -- 70
2020-03-28 20:00:00 8.2 0 Calma 12 Noroeste 0 -- -- 62
2020-03-28 19:00:00 12.9 8 Norte 15 Norte 0 -- -- 50
2020-03-28 18:00:00 17.5 10 Nordeste 20 Nordeste 0 -- -- 31
2020-03-28 17:00:00 17.7 12 Nordeste 21 Nordeste 0 -- -- 30
2020-03-28 16:00:00 17.2 11 Norte 23 Norte 0 -- -- 30
2020-03-28 15:00:00 16.4 11 Nordeste 21 Nordeste 0 -- -- 32
2020-03-28 14:00:00 16 9 Nordeste 19 Nordeste 0 -- -- 33
2020-03-28 13:00:00 15.6 7 Norte 20 Nordeste 0 -- -- 31
2020-03-28 12:00:00 14.3 6 Nordeste 19 Norte 0 -- -- 29
2020-03-28 11:00:00 13.1 4 Nordeste 8 Nordeste 0 -- -- 45
2020-03-28 10:00:00 8.5 2 Sur 5 Sur 0 -- -- 58
2020-03-28 09:00:00 3.2 2 Sudeste 3 Sudeste 0 -- -- 71
2020-03-28 08:00:00 -1.3 0 Calma 5 Sudeste 0 -- -- 83
2020-03-28 07:00:00 -5.5 4 Este 8 Este 0 -- -- 90
2020-03-28 06:00:00 -6 6 Este 10 Este 0 -- -- 91
2020-03-28 05:00:00 -5.1 0 Calma 6 Este 0 -- -- 91
2020-03-28 04:00:00 -4.6 0 Calma 4 Este 0 -- -- 94
2020-03-28 03:00:00 -4.8 2 Este 5 Sudeste 0 -- -- 90
2020-03-28 02:00:00 -4.2 3 Este 9 Norte 0 -- -- 89
2020-03-28 01:00:00 -3.3 0 Calma 4 Este 0 -- -- 89
2020-03-28 00:00:00 -2.3 5 Nordeste 6 Nordeste 0 -- -- 85
2020-03-27 23:00:00 -0.5 0 Calma 5 Sudoeste 0 -- -- 80
2020-03-27 22:00:00 1.9 0 Calma 17 Este 0 -- -- 75
2020-03-27 21:00:00 2.7 5 Norte 10 Nordeste 0 -- -- 71
2020-03-27 20:00:00 4.5 0 Calma 7 Este 0 -- -- 66
2020-03-27 19:00:00 11.4 8 Este 16 Este 0 -- -- 39
2020-03-27 18:00:00 13.4 8 Este 21 Este 0 -- -- 33
2020-03-27 17:00:00 13.3 10 Este 28 Este 0 -- -- 34
2020-03-27 16:00:00 13.4 14 Este 34 Sudeste 0 -- -- 31
2020-03-27 15:00:00 12.8 19 Este 35 Este 0 -- -- 35
2020-03-27 14:00:00 11.8 17 Este 39 Este 0 -- -- 39
2020-03-27 13:00:00 11.1 20 Este 33 Este 0 -- -- 40
2020-03-27 12:00:00 9.9 19 Este 33 Este 0 -- -- 40
2020-03-27 11:00:00 8.4 24 Este 32 Este 0 -- -- 48
2020-03-27 10:00:00 6.5 23 Nordeste 32 Este 0 -- -- 54
2020-03-27 09:00:00 3.7 20 Nordeste 30 Nordeste 0 -- -- 61
2020-03-27 08:00:00 0.1 17 Nordeste 27 Nordeste 0 -- -- 72
2020-03-27 07:00:00 -2.2 17 Nordeste 26 Nordeste 0 -- -- 82
2020-03-27 06:00:00 -1.8 18 Norte 26 Norte 0 -- -- 81
2020-03-27 05:00:00 -1.5 18 Norte 23 Norte 0 -- -- 83
2020-03-27 04:00:00 -1.5 10 Norte 21 Nordeste 0 -- -- 81
2020-03-27 03:00:00 1.2 15 Nordeste 33 Norte 0 -- -- 71
2020-03-27 02:00:00 2.8 19 Norte 32 Nordeste 0 -- -- 70
2020-03-27 01:00:00 3.9 22 Nordeste 33 Nordeste 0 -- -- 64
2020-03-27 00:00:00 4.5 24 Nordeste 38 Nordeste 0 -- -- 58
2020-03-26 23:00:00 4.5 21 Nordeste 30 Nordeste 0 -- -- 66
2020-03-26 22:00:00 4.3 18 Nordeste 25 Nordeste 0 -- -- 71
2020-03-26 21:00:00 4.8 18 Nordeste 24 Nordeste 0 -- -- 69
2020-03-26 20:00:00 5.1 10 Nordeste 17 Nordeste 0 -- -- 66
2020-03-26 19:00:00 8.2 17 Nordeste 23 Nordeste 0 -- -- 54
2020-03-26 18:00:00 11.4 16 Nordeste 27 Nordeste 0 -- -- 45
2020-03-26 17:00:00 11.6 18 Nordeste 29 Nordeste 0 -- -- 46
2020-03-26 16:00:00 11.7 15 Norte 33 Norte 0 -- -- 47
2020-03-26 15:00:00 10.5 21 Nordeste 37 Nordeste 0 -- -- 48
2020-03-26 14:00:00 11.5 15 Norte 31 Norte 0 -- -- 48
2020-03-26 13:00:00 11.3 15 Norte 36 Nordeste 0 -- -- 41
2020-03-26 12:00:00 10.1 14 Norte 26 Nordeste 0 -- -- 50
2020-03-26 11:00:00 9 16 Nordeste 28 Nordeste 0 -- -- 54
2020-03-26 10:00:00 7.8 4 Este 9 Nordeste 0 -- -- 61
2020-03-26 09:00:00 2.7 3 Este 4 Este 0 -- -- 74
2020-03-26 08:00:00 -2.1 0 Calma 4 Noroeste 0 -- -- 86
2020-03-26 07:00:00 -5.2 0 Calma 4 Noroeste 0 -- -- 97
2020-03-26 06:00:00 -5.3 3 Sudeste 4 Sudeste 0 -- -- 94
2020-03-26 05:00:00 -4.4 0 Calma 5 Este 0 -- -- 94
2020-03-26 04:00:00 -3.2 0 Calma 9 Norte 0 -- -- 89
2020-03-26 03:00:00 -1.2 3 Norte 9 Norte 0 -- -- 82
2020-03-26 02:00:00 0.6 5 Este 17 Este 0 -- -- 72
2020-03-26 01:00:00 4.2 10 Nordeste 24 Nordeste 0 -- -- 56
2020-03-26 00:00:00 5.5 20 Nordeste 29 Norte 0 -- -- 46
2020-03-25 23:00:00 6.8 18 Nordeste 28 Norte 0 -- -- 44
2020-03-25 22:00:00 6.7 19 Nordeste 24 Nordeste 0 -- -- 55
2020-03-25 21:00:00 7.6 16 Norte 19 Norte 0 -- -- 55
2020-03-25 20:00:00 7.3 4 Noroeste 9 Norte 0 -- -- 70
2020-03-25 19:00:00 15.3 6 Norte 14 Norte 0 -- -- 49
2020-03-25 18:00:00 16.9 9 Norte 24 Noroeste 0 -- -- 33
2020-03-25 17:00:00 17.1 10 Noroeste 24 Noroeste 0 -- -- 31
2020-03-25 16:00:00 16.3 12 Noroeste 24 Norte 0 -- -- 42
2020-03-25 15:00:00 15.7 10 Noroeste 24 Noroeste 0 -- -- 45
2020-03-25 14:00:00 15.5 13 Oeste 27 Oeste 0 -- -- 52
2020-03-25 13:00:00 14 13 Oeste 24 Oeste 0 -- -- 55
2020-03-25 12:00:00 13.4 8 Oeste 16 Oeste 0 -- -- 60
2020-03-25 11:00:00 12 4 Sudoeste 10 Sudoeste 0 -- -- 67
2020-03-25 10:00:00 9.6 0 Calma 8 Este 0 -- -- 71
2020-03-25 09:00:00 4.8 3 Este 5 Este 0 -- -- 87
2020-03-25 08:00:00 -0.7 3 Este 5 Sudeste 0 -- -- 95
2020-03-25 07:00:00 -2.5 4 Este 5 Este 0 -- -- 98
2020-03-25 06:00:00 -2.3 3 Este 6 Sudeste 0 -- -- 98
2020-03-25 05:00:00 -0.8 4 Sudeste 6 Este 0 -- -- 97
2020-03-25 04:00:00 -0.8 2 Este 3 Sudeste 0 -- -- 96
2020-03-25 03:00:00 1 0 Calma 9 Sur 0 -- -- 93
2020-03-25 02:00:00 3.3 6 Este 13 Nordeste 0 -- -- 87
2020-03-25 01:00:00 3.7 3 Este 11 Norte 0 -- -- 85
2020-03-25 00:00:00 4 4 Este 16 Nordeste 0 -- -- 84
2020-03-24 23:00:00 6.1 10 Nordeste 20 Nordeste 0 -- -- 78
2020-03-24 22:00:00 7.1 13 Nordeste 18 Nordeste 0 -- -- 74
2020-03-24 21:00:00 8.2 14 Nordeste 20 Nordeste 0 -- -- 71
2020-03-24 20:00:00 8.2 9 Este 20 Nordeste 0 -- -- 73
2020-03-24 19:00:00 12.5 17 Este 27 Este 0 -- -- 57
2020-03-24 18:00:00 14.8 18 Este 31 Nordeste 0 -- -- 49
2020-03-24 17:00:00 15.3 23 Nordeste 38 Nordeste 0 -- -- 48
2020-03-24 16:00:00 15.5 26 Este 36 Este 0 -- -- 52
2020-03-24 15:00:00 15.4 24 Nordeste 38 Este 0 -- -- 52
2020-03-24 14:00:00 15.4 23 Nordeste 37 Este 0 -- -- 51
2020-03-24 13:00:00 14.4 26 Nordeste 36 Este 0 -- -- 57
2020-03-24 12:00:00 13.4 22 Este 31 Nordeste 0 -- -- 61
2020-03-24 11:00:00 11.9 21 Nordeste 34 Nordeste 0 -- -- 70
2020-03-24 10:00:00 10.3 21 Nordeste 31 Nordeste 0 -- -- 78
2020-03-24 09:00:00 8.9 19 Nordeste 31 Nordeste 0 -- -- 83
2020-03-24 08:00:00 6.5 19 Nordeste 26 Nordeste 0 -- -- 88
2020-03-24 07:00:00 4.6 14 Nordeste 21 Nordeste 0 -- -- 92
2020-03-24 06:00:00 4.5 14 Nordeste 20 Nordeste 0 -- -- 94
2020-03-24 05:00:00 4.5 6 Este 15 Nordeste 0 -- -- 93
2020-03-24 04:00:00 5.5 12 Nordeste 21 Nordeste 0 -- -- 92
2020-03-24 03:00:00 6.1 12 Nordeste 17 Nordeste 0 -- -- 91
2020-03-24 02:00:00 4.7 6 Este 20 Nordeste 0 -- -- 93
2020-03-24 01:00:00 6.1 13 Nordeste 22 Nordeste 0 -- -- 90
2020-03-24 00:00:00 6.6 17 Nordeste 24 Nordeste 0 -- -- 90
2020-03-23 23:00:00 7 17 Nordeste 22 Nordeste 0 -- -- 88
2020-03-23 22:00:00 6.6 13 Nordeste 21 Nordeste 0 -- -- 90
2020-03-23 21:00:00 7.1 16 Nordeste 23 Nordeste 0 -- -- 87
2020-03-23 20:00:00 7.5 8 Nordeste 18 Nordeste 0 -- -- 88
2020-03-23 19:00:00 9.4 17 Nordeste 33 Este 2.4 -- -- 84
2020-03-23 18:00:00 11 18 Sudeste 29 Este 0.2 -- -- 71
2020-03-23 17:00:00 15.7 14 Este 28 Este 0 -- -- 49
2020-03-23 16:00:00 13.8 24 Este 38 Este 0 -- -- 57
2020-03-23 15:00:00 13.5 21 Este 35 Este 0 -- -- 55
2020-03-23 14:00:00 14.3 21 Este 34 Este 0 -- -- 57
2020-03-23 13:00:00 13.3 22 Este 33 Este 0 -- -- 57
2020-03-23 12:00:00 12.1 22 Este 35 Este 0 -- -- 62
2020-03-23 11:00:00 13.6 18 Nordeste 29 Este 0 -- -- 60
2020-03-23 10:00:00 10.3 19 Este 28 Este 0 -- -- 71
2020-03-23 09:00:00 9.6 13 Nordeste 25 Nordeste 0 -- -- 81
2020-03-23 08:00:00 6.6 19 Nordeste 28 Nordeste 0 -- -- 89
2020-03-23 07:00:00 5.5 20 Nordeste 27 Nordeste 0 -- -- 89
2020-03-23 06:00:00 5.4 7 Este 20 Nordeste 0 -- -- 91
2020-03-23 05:00:00 5.4 15 Nordeste 24 Nordeste 0 -- -- 91
2020-03-23 04:00:00 5.3 18 Nordeste 25 Nordeste 0 -- -- 90
2020-03-23 03:00:00 4.9 8 Este 18 Nordeste 0 -- -- 92
2020-03-23 02:00:00 5.4 15 Nordeste 22 Nordeste 0 -- -- 91
2020-03-23 01:00:00 4 8 Nordeste 18 Nordeste 0 -- -- 92
2020-03-23 00:00:00 6.6 18 Norte 23 Norte 0 -- -- 84
2020-03-22 23:00:00 6.8 17 Norte 25 Norte 0 -- -- 87
2020-03-22 22:00:00 7.4 16 Nordeste 23 Nordeste 0 -- -- 87
2020-03-22 21:00:00 7.8 15 Nordeste 21 Nordeste 0 -- -- 84
2020-03-22 20:00:00 9.1 17 Norte 32 Norte 0 -- -- 81
2020-03-22 19:00:00 10.8 20 Norte 30 Norte 0 -- -- 75
2020-03-22 18:00:00 12.3 22 Norte 33 Norte 0 -- -- 66
2020-03-22 17:00:00 11.8 26 Norte 44 Norte 0 -- -- 69
2020-03-22 16:00:00 15.8 11 Nordeste 19 Nordeste 0 -- -- 53
2020-03-22 15:00:00 14.3 4 Sur 12 Nordeste 0 -- -- 62
2020-03-22 14:00:00 13.4 6 Nordeste 14 Nordeste 0 -- -- 65
2020-03-22 13:00:00 12.9 4 Nordeste 12 Nordeste 0 -- -- 71
2020-03-22 12:00:00 10.7 6 Nordeste 15 Nordeste 0 -- -- 80
2020-03-22 11:00:00 10 8 Nordeste 13 Nordeste 0 -- -- 82
2020-03-22 10:00:00 8.6 7 Nordeste 15 Nordeste 0 -- -- 92
2020-03-22 09:00:00 7.2 9 Nordeste 17 Nordeste 0 -- -- 95
2020-03-22 08:00:00 6.7 10 Norte 14 Norte 0 -- -- 95
2020-03-22 07:00:00 6.5 9 Norte 15 Norte 0 -- -- 96
2020-03-22 06:00:00 6.4 9 Norte 14 Norte 0 -- -- 96
2020-03-22 05:00:00 6.3 8 Norte 12 Norte 0 -- -- 97
2020-03-22 04:00:00 6.2 8 Norte 13 Norte 0 -- -- 96
2020-03-22 03:00:00 6.2 4 Nordeste 9 Norte 0.4 -- -- 96
2020-03-22 02:00:00 6.2 6 Norte 8 Norte 0.4 -- -- 96
2020-03-22 01:00:00 6.3 0 Calma 3 Noroeste 0.2 -- -- 97
2020-03-22 00:00:00 6.6 0 Calma 6 Noroeste 0.4 -- -- 92
2020-03-21 23:00:00 6.7 3 Noroeste 6 Oeste 0.4 -- -- 93
2020-03-21 22:00:00 7 3 Sudoeste 4 Oeste 0.2 -- -- 97
2020-03-21 21:00:00 7.2 0 Calma 5 Oeste 0 -- -- 96
2020-03-21 20:00:00 7.4 2 Oeste 6 Oeste 0 -- -- 95
2020-03-21 19:00:00 7.6 4 Oeste 9 Oeste 0.4 -- -- 95
2020-03-21 18:00:00 7.7 5 Sudoeste 21 Sur 0.4 -- -- 93
2020-03-21 17:00:00 9.5 10 Sudoeste 18 Sur 0.2 -- -- 88
2020-03-21 16:00:00 10.5 6 Sudoeste 20 Sudoeste 0.2 -- -- 83
2020-03-21 15:00:00 13.7 7 Noroeste 15 Oeste 0 -- -- 60
2020-03-21 14:00:00 13.3 8 Sudoeste 17 Sudoeste 0 -- -- 64
2020-03-21 13:00:00 13.6 12 Sudoeste 21 Oeste 0 -- -- 61
2020-03-21 12:00:00 13.4 13 Sudoeste 25 Sur 0 -- -- 63
2020-03-21 11:00:00 14 6 Nordeste 19 Nordeste 0 -- -- 58
2020-03-21 10:00:00 10.9 13 Nordeste 22 Nordeste 0 -- -- 76
2020-03-21 09:00:00 8.6 15 Nordeste 21 Nordeste 0 -- -- 81
2020-03-21 08:00:00 5.9 15 Nordeste 22 Nordeste 0 -- -- 89
2020-03-21 07:00:00 5.1 9 Este 18 Nordeste 0 -- -- 92
2020-03-21 06:00:00 4.3 12 Nordeste 18 Norte 0 -- -- 95
2020-03-21 05:00:00 2.3 0 Calma 11 Nordeste 0 -- -- 97
2020-03-21 04:00:00 1.9 0 Calma 8 Este 0 -- -- 99
2020-03-21 03:00:00 1.8 3 Este 6 Nordeste 0 -- -- 96
2020-03-21 02:00:00 3.7 4 Nordeste 6 Nordeste 0 -- -- 95
2020-03-21 01:00:00 5.3 5 Nordeste 17 Nordeste 0 -- -- 89
2020-03-21 00:00:00 6.9 10 Nordeste 14 Nordeste 0 -- -- 87
2020-03-20 23:00:00 6.6 6 Nordeste 18 Nordeste 0 -- -- 89
2020-03-20 22:00:00 8 14 Nordeste 18 Nordeste 0 -- -- 85
2020-03-20 21:00:00 6.9 5 Este 7 Este 0 -- -- 90
2020-03-20 20:00:00 10.8 3 Oeste 15 Sudoeste 0 -- -- 75
2020-03-20 19:00:00 12.4 8 Sudoeste 22 Sudoeste 0 -- -- 69
2020-03-20 18:00:00 13.8 9 Sudoeste 21 Sudoeste 0 -- -- 66
2020-03-20 17:00:00 14.5 9 Sudoeste 28 Sudoeste 0 -- -- 63
2020-03-20 16:00:00 16.5 14 Sudoeste 28 Sur 0 -- -- 55
2020-03-20 15:00:00 15.6 6 Sudeste 14 Sudoeste 0 -- -- 59
2020-03-20 14:00:00 14.8 5 Noroeste 12 Oeste 0 -- -- 64
2020-03-20 13:00:00 15.6 4 Norte 9 Norte 0 -- -- 59
2020-03-20 12:00:00 14.5 2 Sur 10 Nordeste 0 -- -- 59
2020-03-20 11:00:00 11.4 4 Nordeste 8 Nordeste 0 -- -- 77
2020-03-20 10:00:00 9 3 Sudeste 6 Este 0 -- -- 90
2020-03-20 09:00:00 6.3 3 Este 6 Este 0 -- -- 95
2020-03-20 08:00:00 6.2 3 Nordeste 10 Nordeste 0 -- -- 92
2020-03-20 07:00:00 4.9 0 Calma 11 Sudoeste 0 -- -- 95
2020-03-20 06:00:00 5.7 2 Sudeste 11 Norte 0 -- -- 94
2020-03-20 05:00:00 6.4 8 Norte 17 Norte 0 -- -- 93
2020-03-20 04:00:00 5.7 0 Calma 5 Noroeste 0 -- -- 95
2020-03-20 03:00:00 6.1 2 Oeste 5 Oeste 0 -- -- 100
2020-03-20 02:00:00 4.7 0 Calma 3 Norte 0 -- -- 99
2020-03-20 01:00:00 5 0 Calma 6 Nordeste 0 -- -- 99
2020-03-20 00:00:00 5.9 0 Calma 4 Sudeste 0 -- -- 99
2020-03-19 23:00:00 5.7 0 Calma 6 Este 0 -- -- 99
2020-03-19 22:00:00 6.8 0 Calma 7 Este 0 -- -- 98
2020-03-19 21:00:00 7.7 0 Calma 6 Sudeste 0 -- -- 96
2020-03-19 20:00:00 11.1 0 Calma 9 Oeste 0 -- -- 86
2020-03-19 19:00:00 13.8 3 Oeste 6 Noroeste 0 -- -- 75
2020-03-19 18:00:00 15.6 4 Oeste 10 Oeste 0 -- -- 62
2020-03-19 17:00:00 16.7 3 Noroeste 8 Oeste 0 -- -- 54
2020-03-19 16:00:00 17.1 5 Norte 9 Norte 0 -- -- 52
2020-03-19 15:00:00 16.4 5 Nordeste 9 Norte 0 -- -- 59
2020-03-19 14:00:00 16 4 Este 11 Nordeste 0 -- -- 64
2020-03-19 13:00:00 15.7 6 Nordeste 12 Nordeste 0 -- -- 69
2020-03-19 12:00:00 14.3 5 Norte 10 Norte 0 -- -- 71
2020-03-19 11:00:00 14.8 3 Norte 8 Norte 0 -- -- 70
2020-03-19 10:00:00 13 3 Este 6 Este 0 -- -- 79
2020-03-19 09:00:00 8.7 3 Este 6 Sudeste 0 -- -- 96
2020-03-19 08:00:00 3.4 3 Este 4 Este 0 -- -- 99
2020-03-19 07:00:00 3.6 0 Calma 4 Este 0 -- -- 98
2020-03-19 06:00:00 3.4 3 Este 4 Este 0 -- -- 98
2020-03-19 05:00:00 4.3 3 Este 7 Este 0 -- -- 98
2020-03-19 04:00:00 5.4 5 Este 9 Nordeste 0 -- -- 96
2020-03-19 03:00:00 5.4 6 Nordeste 8 Nordeste 0 -- -- 97
2020-03-19 02:00:00 5.6 6 Este 8 Este 0 -- -- 95
2020-03-19 01:00:00 6.9 3 Este 10 Nordeste 0 -- -- 93
2020-03-19 00:00:00 5.8 6 Este 9 Nordeste 0 -- -- 96
2020-03-18 23:00:00 8 5 Nordeste 9 Nordeste 0 -- -- 94
2020-03-18 22:00:00 9.2 8 Este 12 Nordeste 0 -- -- 90
2020-03-18 21:00:00 12.2 13 Nordeste 19 Nordeste 0 -- -- 79
2020-03-18 20:00:00 12.1 4 Este 13 Nordeste 0 -- -- 85
2020-03-18 19:00:00 14.4 8 Norte 13 Norte 0 -- -- 78
2020-03-18 18:00:00 17.1 10 Norte 15 Norte 0 -- -- 66
2020-03-18 17:00:00 19.2 10 Norte 14 Norte 0 -- -- 55
2020-03-18 16:00:00 20.2 6 Norte 12 Nordeste 0 -- -- 48
2020-03-18 15:00:00 19.7 4 Norte 11 Nordeste 0 -- -- 52
2020-03-18 14:00:00 18.7 4 Nordeste 11 Nordeste 0 -- -- 53
2020-03-18 13:00:00 17.2 5 Este 11 Nordeste 0 -- -- 61
2020-03-18 12:00:00 14.1 6 Este 10 Este 0 -- -- 72
2020-03-18 11:00:00 12.4 4 Este 12 Este 0 -- -- 77
2020-03-18 10:00:00 9.8 9 Este 18 Nordeste 0 -- -- 87
2020-03-18 09:00:00 7.8 8 Nordeste 15 Nordeste 0 -- -- 94
2020-03-18 08:00:00 6.5 5 Este 20 Nordeste 0 -- -- 94
2020-03-18 07:00:00 6.5 12 Nordeste 16 Nordeste 0 -- -- 96
2020-03-18 06:00:00 6.4 8 Este 13 Nordeste 0 -- -- 95
2020-03-18 05:00:00 7.2 11 Nordeste 24 Nordeste 0 -- -- 92
2020-03-18 04:00:00 7.6 15 Nordeste 22 Nordeste 0 -- -- 92
2020-03-18 03:00:00 7.8 16 Nordeste 22 Nordeste 0 -- -- 92
2020-03-18 02:00:00 8.1 7 Este 18 Nordeste 0 -- -- 89
2020-03-18 01:00:00 7.7 8 Nordeste 17 Nordeste 0 -- -- 92
2020-03-18 00:00:00 7.3 6 Este 21 Nordeste 0 -- -- 94
2020-03-17 23:00:00 8.6 14 Nordeste 23 Nordeste 0 -- -- 91
2020-03-17 22:00:00 9.4 17 Nordeste 28 Nordeste 0 -- -- 89
2020-03-17 21:00:00 10.3 19 Nordeste 30 Nordeste 0 -- -- 85
2020-03-17 20:00:00 10.5 13 Este 23 Este 0 -- -- 84
2020-03-17 19:00:00 12.6 18 Este 29 Este 0 -- -- 77
2020-03-17 18:00:00 14.5 19 Este 29 Este 0 -- -- 66
2020-03-17 17:00:00 16 18 Nordeste 38 Este 0 -- -- 63
2020-03-17 16:00:00 17.2 22 Este 42 Este 0 -- -- 56
2020-03-17 15:00:00 15.2 20 Este 33 Sudeste 0 -- -- 58
2020-03-17 14:00:00 16 22 Este 41 Este 0 -- -- 64
2020-03-17 13:00:00 14.2 32 Este 49 Este 0 -- -- 70
2020-03-17 12:00:00 12.3 30 Nordeste 40 Este 0 -- -- 78
2020-03-17 11:00:00 10.5 26 Nordeste 40 Nordeste 0 -- -- 84
2020-03-17 10:00:00 9.2 32 Nordeste 42 Nordeste 0 -- -- 88
2020-03-17 09:00:00 7.6 27 Nordeste 37 Nordeste 0 -- -- 90
2020-03-17 08:00:00 7.3 26 Nordeste 38 Nordeste 0 -- -- 92
2020-03-17 07:00:00 7.3 27 Nordeste 40 Nordeste 0.4 -- -- 90
2020-03-17 06:00:00 6.8 21 Nordeste 31 Nordeste 0 -- -- 89
2020-03-17 05:00:00 6.7 12 Nordeste 22 Nordeste 0 -- -- 89
2020-03-17 04:00:00 5.5 2 Sudoeste 18 Nordeste 0.2 -- -- 95
2020-03-17 03:00:00 5.5 12 Nordeste 22 Nordeste 0.4 -- -- 94
2020-03-17 02:00:00 5.2 12 Nordeste 18 Nordeste 1 -- -- 95
2020-03-17 01:00:00 4.9 7 Nordeste 13 Sudeste 0.6 -- -- 96
2020-03-17 00:00:00 5.2 10 Nordeste 29 Norte 0.2 -- -- 93
2020-03-16 23:00:00 5.4 19 Nordeste 28 Nordeste 0.2 -- -- 91
2020-03-16 22:00:00 4.9 14 Nordeste 29 Nordeste 0 -- -- 95
2020-03-16 21:00:00 5.5 23 Nordeste 42 Nordeste 0 -- -- 91
2020-03-16 20:00:00 5.8 32 Nordeste 46 Nordeste 0 -- -- 88
2020-03-16 19:00:00 5.2 28 Nordeste 44 Norte 0.4 -- -- 89
2020-03-16 18:00:00 5.2 26 Nordeste 45 Nordeste 1 -- -- 92
2020-03-16 17:00:00 5.9 29 Nordeste 47 Nordeste 0.6 -- -- 88
2020-03-16 16:00:00 5.1 33 Nordeste 59 Norte 0.6 -- -- 87
2020-03-16 15:00:00 4.7 41 Nordeste 67 Nordeste 0.2 -- -- 87
2020-03-16 14:00:00 4.9 40 Nordeste 61 Nordeste 0.6 -- -- 87
2020-03-16 13:00:00 4 38 Nordeste 58 Nordeste 1.4 -- -- 89
2020-03-16 12:00:00 3.2 37 Nordeste 54 Nordeste 1.6 -- -- 92
2020-03-16 11:00:00 2.4 24 Norte 35 Norte 1.8 -- -- 95
2020-03-16 10:00:00 2.1 23 Norte 35 Norte 1 -- -- 95
2020-03-16 09:00:00 1.4 22 Nordeste 39 Norte 0.8 -- -- 96
2020-03-16 08:00:00 2.1 26 Nordeste 43 Nordeste 0.8 -- -- 95
2020-03-16 07:00:00 2.1 9 Sur 17 Sur 0.2 -- -- 98
2020-03-16 06:00:00 2 6 Sudoeste 11 Sudoeste 0.2 -- -- 98
2020-03-16 05:00:00 2.1 6 Sudoeste 14 Sudoeste 0 -- -- 95
2020-03-16 04:00:00 2.3 6 Sudoeste 19 Oeste 0 -- -- 93
2020-03-16 03:00:00 2.9 10 Sudoeste 23 Sudoeste 0 -- -- 88
2020-03-16 02:00:00 3.4 9 Sudoeste 23 Oeste 0 -- -- 85
2020-03-16 01:00:00 4 10 Oeste 27 Oeste 0 -- -- 80
2020-03-16 00:00:00 6 16 Oeste 34 Oeste 0 -- -- 72
2020-03-15 23:00:00 8.8 12 Sudoeste 27 Oeste 0 -- -- 70
2020-03-15 22:00:00 9.3 5 Sudoeste 20 Sudoeste 0 -- -- 69
2020-03-15 21:00:00 10.1 6 Oeste 20 Oeste 0 -- -- 68
2020-03-15 20:00:00 11.9 11 Oeste 28 Oeste 0 -- -- 65
2020-03-15 19:00:00 13.8 17 Oeste 31 Oeste 0 -- -- 60
2020-03-15 18:00:00 16 18 Oeste 50 Oeste 0 -- -- 54
2020-03-15 17:00:00 19.5 28 Oeste 54 Sudoeste 0 -- -- 36
2020-03-15 16:00:00 19.5 24 Oeste 48 Sudoeste 0 -- -- 44
2020-03-15 15:00:00 18.6 13 Sudoeste 33 Sudoeste 0 -- -- 48
2020-03-15 14:00:00 18.9 17 Sudoeste 37 Sudoeste 0 -- -- 44
2020-03-15 13:00:00 19.4 18 Oeste 35 Oeste 0 -- -- 44
2020-03-15 12:00:00 17.7 16 Sudoeste 28 Sudoeste 0 -- -- 45
2020-03-15 11:00:00 15.7 10 Sudoeste 18 Sudoeste 0 -- -- 50
2020-03-15 10:00:00 12.2 0 Calma 4 Este 0 -- -- 56
2020-03-15 09:00:00 4.8 0 Calma 5 Sudeste 0 -- -- 81
2020-03-15 08:00:00 -2.3 4 Este 8 Este 0 -- -- 92
2020-03-15 07:00:00 -3.9 6 Este 7 Este 0 -- -- 95
2020-03-15 06:00:00 -3.6 3 Sudeste 7 Este 0 -- -- 93
2020-03-15 05:00:00 -3.4 4 Este 8 Sudeste 0 -- -- 95
2020-03-15 04:00:00 -2.8 3 Este 8 Este 0 -- -- 93
2020-03-15 03:00:00 -3.7 4 Sudeste 7 Este 0 -- -- 93
2020-03-15 02:00:00 -3.3 6 Este 9 Este 0 -- -- 92
2020-03-15 01:00:00 -2.5 3 Este 4 Este 0 -- -- 90
2020-03-15 00:00:00 -0.9 3 Sudeste 7 Sudeste 0 -- -- 87
2020-03-14 23:00:00 0.8 3 Este 8 Sudeste 0 -- -- 83
2020-03-14 22:00:00 1.8 7 Este 16 Sudeste 0 -- -- 76
2020-03-14 21:00:00 4.4 5 Este 9 Este 0 -- -- 69
2020-03-14 20:00:00 8.5 3 Nordeste 10 Norte 0 -- -- 55
2020-03-14 19:00:00 14.7 9 Norte 10 Norte 0 -- -- 46
2020-03-14 18:00:00 19.2 6 Norte 14 Noroeste 0 -- -- 25
2020-03-14 17:00:00 19 8 Noroeste 17 Noroeste 0 -- -- 23
2020-03-14 16:00:00 19.8 7 Norte 16 Norte 0 -- -- 30
2020-03-14 15:00:00 18.5 9 Nordeste 18 Nordeste 0 -- -- 34
2020-03-14 14:00:00 17.4 12 Nordeste 19 Norte 0 -- -- 37
2020-03-14 13:00:00 15.8 6 Noroeste 12 Este 0 -- -- 49
2020-03-14 12:00:00 12.7 4 Norte 9 Noroeste 0 -- -- 65
2020-03-14 11:00:00 10 0 Calma 5 Nordeste 0 -- -- 71
2020-03-14 10:00:00 3.8 2 Nordeste 5 Nordeste 0 -- -- 98
2020-03-14 09:00:00 0.1 4 Este 7 Este 0 -- -- 99
2020-03-14 08:00:00 -2.8 2 Este 5 Este 0 -- -- 98
2020-03-14 07:00:00 -4.4 4 Este 5 Este 0 -- -- 98
2020-03-14 06:00:00 -3.5 3 Este 4 Este 0 -- -- 97
2020-03-14 05:00:00 -3.6 4 Este 6 Sudeste 0 -- -- 97
2020-03-14 04:00:00 -2.9 0 Calma 4 Este 0 -- -- 99
2020-03-14 03:00:00 -2.8 2 Este 4 Norte 0 -- -- 96
2020-03-14 02:00:00 -0.1 0 Calma 6 Norte 0 -- -- 92
2020-03-14 01:00:00 1.5 3 Sudeste 6 Sudeste 0 -- -- 95
2020-03-14 00:00:00 2 3 Sudeste 7 Noroeste 0 -- -- 93
2020-03-13 23:00:00 5.4 4 Noroeste 15 Este 0 -- -- 87
2020-03-13 22:00:00 6.3 9 Sudeste 17 Norte 0 -- -- 85
2020-03-13 21:00:00 7.1 6 Sudeste 28 Norte 0 -- -- 85
2020-03-13 20:00:00 9.3 22 Norte 32 Norte 0 -- -- 76
2020-03-13 19:00:00 11.6 20 Norte 34 Norte 0 -- -- 70
2020-03-13 18:00:00 14.2 23 Norte 30 Norte 0 -- -- 64
2020-03-13 17:00:00 16.7 15 Norte 26 Norte 0 -- -- 58
2020-03-13 16:00:00 18.8 11 Norte 19 Norte 0 -- -- 54
2020-03-13 15:00:00 18 11 Norte 20 Norte 0 -- -- 55
2020-03-13 14:00:00 17 11 Nordeste 21 Norte 0 -- -- 59
2020-03-13 13:00:00 17 8 Norte 15 Nordeste 0 -- -- 59
2020-03-13 12:00:00 15.7 8 Nordeste 18 Nordeste 0 -- -- 62
2020-03-13 11:00:00 14.3 12 Nordeste 23 Nordeste 0 -- -- 66
2020-03-13 10:00:00 11.7 18 Nordeste 26 Norte 0 -- -- 74
2020-03-13 09:00:00 7.8 19 Norte 31 Norte 0 -- -- 85
2020-03-13 08:00:00 6.4 24 Norte 33 Norte 0 -- -- 93
2020-03-13 07:00:00 6.5 22 Norte 30 Norte 0 -- -- 92
2020-03-13 06:00:00 6.9 22 Norte 29 Norte 0 -- -- 91
2020-03-13 05:00:00 7.2 20 Norte 27 Norte 0 -- -- 90
2020-03-13 04:00:00 7.6 13 Norte 20 Norte 0 -- -- 89
2020-03-13 03:00:00 8.3 5 Nordeste 22 Norte 0 -- -- 88
2020-03-13 02:00:00 8.7 10 Nordeste 22 Este 0 -- -- 87
2020-03-13 01:00:00 9.1 12 Nordeste 33 Norte 0 -- -- 85
2020-03-13 00:00:00 9.5 29 Norte 42 Norte 0 -- -- 85
2020-03-12 23:00:00 10.1 30 Norte 38 Norte 0 -- -- 84
2020-03-12 22:00:00 10.7 7 Nordeste 17 Nordeste 0 -- -- 84
2020-03-12 21:00:00 12.1 8 Este 33 Norte 0 -- -- 78
2020-03-12 20:00:00 14.2 22 Norte 30 Norte 0 -- -- 72
2020-03-12 19:00:00 17.2 13 Norte 19 Norte 0 -- -- 60
2020-03-12 18:00:00 19.4 10 Norte 21 Norte 0 -- -- 51
2020-03-12 17:00:00 21.2 16 Noroeste 23 Oeste 0 -- -- 45
2020-03-12 16:00:00 23.1 15 Noroeste 22 Noroeste 0 -- -- 35
2020-03-12 15:00:00 23.7 15 Noroeste 24 Oeste 0 -- -- 35
2020-03-12 14:00:00 24.4 8 Noroeste 16 Oeste 0 -- -- 33
2020-03-12 13:00:00 22.8 8 Oeste 18 Oeste 0 -- -- 41
2020-03-12 12:00:00 21.4 8 Oeste 13 Oeste 0 -- -- 50
2020-03-12 11:00:00 18.3 2 Norte 5 Noroeste 0 -- -- 48
2020-03-12 10:00:00 14.2 3 Este 6 Este 0 -- -- 70
2020-03-12 09:00:00 7.5 3 Este 7 Este 0 -- -- 96
2020-03-12 08:00:00 4 6 Este 7 Este 0 -- -- 97
2020-03-12 07:00:00 4.3 5 Este 8 Este 0 -- -- 97
2020-03-12 06:00:00 4.3 4 Sudeste 7 Este 0 -- -- 98
2020-03-12 05:00:00 4.6 3 Este 10 Este 0 -- -- 97
2020-03-12 04:00:00 5.6 6 Este 9 Este 0 -- -- 96
2020-03-12 03:00:00 5.7 5 Este 9 Este 0 -- -- 95
2020-03-12 02:00:00 5.9 7 Este 8 Este 0 -- -- 95
2020-03-12 01:00:00 8 0 Calma 5 Este 0 -- -- 88
2020-03-12 00:00:00 8.4 5 Nordeste 9 Este 0 -- -- 89
2020-03-11 23:00:00 9.6 3 Este 9 Este 0 -- -- 86
2020-03-11 22:00:00 10.6 6 Este 11 Sudeste 0 -- -- 84
2020-03-11 21:00:00 11.6 8 Este 10 Este 0 -- -- 79
2020-03-11 20:00:00 13.5 0 Calma 4 Sudeste 0 -- -- 72
2020-03-11 19:00:00 18.4 4 Oeste 6 Oeste 0 -- -- 51
2020-03-11 18:00:00 22.3 5 Oeste 17 Oeste 0 -- -- 38
2020-03-11 17:00:00 22.6 9 Noroeste 18 Oeste 0 -- -- 37
2020-03-11 16:00:00 23.4 12 Oeste 21 Oeste 0 -- -- 35
2020-03-11 15:00:00 23.4 10 Oeste 18 Noroeste 0 -- -- 37
2020-03-11 14:00:00 22.8 11 Noroeste 19 Noroeste 0 -- -- 39
2020-03-11 13:00:00 21.5 10 Oeste 17 Sudoeste 0 -- -- 41
2020-03-11 12:00:00 21.5 3 Norte 8 Norte 0 -- -- 49
2020-03-11 11:00:00 18.8 3 Nordeste 10 Este 0 -- -- 54
2020-03-11 10:00:00 13.7 3 Este 5 Sudeste 0 -- -- 71
2020-03-11 09:00:00 6.5 3 Sudeste 5 Este 0 -- -- 90
2020-03-11 08:00:00 0 4 Este 5 Este 0 -- -- 97
2020-03-11 07:00:00 -0.8 3 Este 4 Este 0 -- -- 99
2020-03-11 06:00:00 -0.1 3 Este 6 Este 0 -- -- 99
2020-03-11 05:00:00 -0.4 4 Este 6 Este 0 -- -- 99
2020-03-11 04:00:00 0 4 Este 5 Sudeste 0 -- -- 98
2020-03-11 03:00:00 0.8 4 Sudeste 5 Sudeste 0 -- -- 98
2020-03-11 02:00:00 1.2 2 Este 4 Sudeste 0 -- -- 98
2020-03-11 01:00:00 3.3 2 Este 4 Sudeste 0 -- -- 98
2020-03-11 00:00:00 4.2 2 Este 4 Nordeste 0 -- -- 98
2020-03-10 23:00:00 4.2 3 Este 7 Sudeste 0 -- -- 93
2020-03-10 22:00:00 6.8 0 Calma 3 Sudeste 0 -- -- 90
2020-03-10 21:00:00 9.6 2 Oeste 3 Oeste 0 -- -- 81
2020-03-10 20:00:00 12.3 2 Nordeste 9 Oeste 0 -- -- 70
2020-03-10 19:00:00 19.2 6 Oeste 22 Oeste 0 -- -- 51
2020-03-10 18:00:00 21.1 9 Oeste 23 Sudoeste 0 -- -- 41
2020-03-10 17:00:00 21.7 12 Sudoeste 22 Sudoeste 0 -- -- 40
2020-03-10 16:00:00 21.7 9 Sudoeste 21 Sudoeste 0 -- -- 41
2020-03-10 15:00:00 20.3 10 Sudoeste 22 Oeste 0 -- -- 43
2020-03-10 14:00:00 19.2 9 Sudoeste 22 Sudoeste 0 -- -- 42
2020-03-10 13:00:00 18.1 7 Sudoeste 17 Sudoeste 0 -- -- 46
2020-03-10 12:00:00 15.7 9 Sudoeste 18 Sudoeste 0 -- -- 50
2020-03-10 11:00:00 14 6 Sudoeste 13 Sudoeste 0 -- -- 54
2020-03-10 10:00:00 10.1 0 Calma 4 Nordeste 0 -- -- 67
2020-03-10 09:00:00 2.4 0 Calma 4 Este 0 -- -- 94
2020-03-10 08:00:00 -1.2 2 Este 4 Sudeste 0 -- -- 95
2020-03-10 07:00:00 -1.5 2 Este 3 Este 0 -- -- 95
2020-03-10 06:00:00 -1.7 2 Este 4 Sudeste 0 -- -- 95
2020-03-10 05:00:00 -1.7 3 Sudeste 4 Sudeste 0 -- -- 95
2020-03-10 04:00:00 -2 2 Este 3 Este 0 -- -- 93
2020-03-10 03:00:00 -1.1 0 Calma 3 Sudeste 0 -- -- 94
2020-03-10 02:00:00 -0.8 2 Este 4 Sudeste 0 -- -- 93
2020-03-10 01:00:00 -0.4 3 Este 4 Sudeste 0 -- -- 93
2020-03-10 00:00:00 0.7 3 Norte 6 Sudeste 0 -- -- 91
2020-03-09 23:00:00 0.3 4 Sudeste 6 Este 0 -- -- 89
2020-03-09 22:00:00 1 4 Este 6 Este 0 -- -- 88
2020-03-09 21:00:00 3.3 0 Calma 5 Este 0 -- -- 79
2020-03-09 20:00:00 7.7 4 Oeste 13 Noroeste 0 -- -- 60
2020-03-09 19:00:00 12 9 Noroeste 18 Oeste 0 -- -- 43
2020-03-09 18:00:00 14.3 12 Noroeste 27 Oeste 0 -- -- 37
2020-03-09 17:00:00 14.3 14 Oeste 31 Noroeste 0 -- -- 40
2020-03-09 16:00:00 14.3 14 Noroeste 29 Oeste 0 -- -- 40
2020-03-09 15:00:00 14 17 Noroeste 34 Oeste 0 -- -- 42
2020-03-09 14:00:00 12.4 15 Oeste 27 Noroeste 0 -- -- 52
2020-03-09 13:00:00 11.1 12 Oeste 26 Oeste 0 -- -- 57
2020-03-09 12:00:00 9.3 12 Oeste 22 Oeste 0 -- -- 68
2020-03-09 11:00:00 7.4 7 Oeste 13 Oeste 0 -- -- 79
2020-03-09 10:00:00 4.3 6 Sudoeste 11 Sudoeste 0 -- -- 98
2020-03-09 09:00:00 2.7 4 Sudoeste 7 Sudoeste 0 -- -- 99
2020-03-09 08:00:00 2.8 4 Sudoeste 10 Oeste 0 -- -- 99
2020-03-09 07:00:00 3.5 3 Sudoeste 8 Oeste 0 -- -- 98
2020-03-09 06:00:00 4 5 Oeste 11 Oeste 0 -- -- 99
2020-03-09 05:00:00 4.1 3 Sudoeste 8 Sudoeste 0 -- -- 99
2020-03-09 04:00:00 4.2 3 Sudoeste 12 Sudoeste 0 -- -- 99
2020-03-09 03:00:00 4.8 4 Sudoeste 9 Sudoeste 0 -- -- 98
2020-03-09 02:00:00 5.6 5 Sudoeste 20 Oeste 0 -- -- 96
2020-03-09 01:00:00 6.9 10 Sudoeste 18 Oeste 0 -- -- 94
2020-03-09 00:00:00 7.4 9 Sudoeste 17 Oeste 0 -- -- 92
2020-03-08 23:00:00 7.2 4 Sudoeste 11 Oeste 0 -- -- 92
2020-03-08 22:00:00 7.9 7 Oeste 16 Sudoeste 0 -- -- 88
2020-03-08 21:00:00 8.7 7 Sudoeste 19 Sudoeste 0 -- -- 83
2020-03-08 20:00:00 10.6 10 Sudoeste 19 Sudoeste 0 -- -- 75
2020-03-08 19:00:00 11.6 8 Sudoeste 23 Sudoeste 0 -- -- 74
2020-03-08 18:00:00 12.7 12 Sudoeste 28 Sudoeste 0 -- -- 65
2020-03-08 17:00:00 13.2 12 Oeste 27 Sudoeste 0 -- -- 61
2020-03-08 16:00:00 12.6 10 Sudoeste 20 Oeste 0 -- -- 54
2020-03-08 15:00:00 11.5 11 Oeste 26 Sudoeste 0 -- -- 59
2020-03-08 14:00:00 11.2 13 Sudoeste 37 Sudoeste 0 -- -- 61
2020-03-08 13:00:00 12.8 17 Sudoeste 32 Sudoeste 0 -- -- 58
2020-03-08 12:00:00 10.6 7 Sudoeste 21 Sudoeste 0 -- -- 72
2020-03-08 11:00:00 8.1 7 Sudoeste 15 Sur 0 -- -- 78
2020-03-08 10:00:00 6 4 Sudoeste 9 Sudoeste 0 -- -- 78
2020-03-08 09:00:00 1.8 0 Calma 6 Este 0 -- -- 93
2020-03-08 08:00:00 -4.4 2 Este 4 Nordeste 0 -- -- 98
2020-03-08 07:00:00 -4.5 0 Calma 4 Sudeste 0 -- -- 98
2020-03-08 06:00:00 -4.3 0 Calma 3 Sudeste 0 -- -- 97
2020-03-08 05:00:00 -4.1 0 Calma 5 Sudeste 0 -- -- 99
2020-03-08 04:00:00 -3.1 0 Calma 4 Este 0 -- -- 99
2020-03-08 03:00:00 -3.4 2 Este 5 Sudeste 0 -- -- 99
2020-03-08 02:00:00 -2.8 0 Calma 5 Este 0 -- -- 97
2020-03-08 01:00:00 -2.4 3 Este 4 Este 0 -- -- 98
2020-03-08 00:00:00 -2.2 4 Sudeste 7 Este 0 -- -- 97
2020-03-07 23:00:00 -1.7 4 Este 6 Este 0 -- -- 97
2020-03-07 22:00:00 -0.4 2 Este 5 Sudeste 0 -- -- 95
2020-03-07 21:00:00 2.5 2 Sudeste 3 Sudeste 0 -- -- 91
2020-03-07 20:00:00 5.6 0 Calma 6 Oeste 0 -- -- 80
2020-03-07 19:00:00 11.5 5 Oeste 12 Sudoeste 0 -- -- 58
2020-03-07 18:00:00 13.4 6 Oeste 15 Oeste 0 -- -- 51
2020-03-07 17:00:00 14.4 5 Norte 17 Oeste 0 -- -- 47
2020-03-07 16:00:00 13.2 8 Oeste 19 Sudoeste 0 -- -- 53
2020-03-07 15:00:00 11.9 11 Oeste 17 Oeste 0 -- -- 55
2020-03-07 14:00:00 10.8 6 Oeste 12 Oeste 0 -- -- 56
2020-03-07 13:00:00 10.9 4 Noroeste 12 Oeste 0 -- -- 59
2020-03-07 12:00:00 9 5 Oeste 14 Sudoeste 0 -- -- 69
2020-03-07 11:00:00 8.5 2 Sudoeste 10 Sudoeste 0 -- -- 65
2020-03-07 10:00:00 4.1 3 Sudoeste 8 Sudoeste 0 -- -- 77
2020-03-07 09:00:00 -0.3 0 Calma 3 Sudeste 0 -- -- 95
2020-03-07 08:00:00 -4.7 3 Nordeste 5 Este 0 -- -- 97
2020-03-07 07:00:00 -4.2 0 Calma 6 Este 0 -- -- 97
2020-03-07 06:00:00 -4.7 2 Este 4 Oeste 0 -- -- 94
2020-03-07 05:00:00 -2.4 3 Oeste 8 Oeste 0 -- -- 92
2020-03-07 04:00:00 -3.9 4 Sudeste 8 Sudeste 0 -- -- 94
2020-03-07 03:00:00 -2 2 Oeste 10 Sudoeste 0 -- -- 90
2020-03-07 02:00:00 -0.8 6 Sudoeste 15 Oeste 0 -- -- 86
2020-03-07 01:00:00 2 9 Noroeste 14 Noroeste 0 -- -- 78
2020-03-07 00:00:00 -0.6 2 Oeste 10 Noroeste 0 -- -- 85
2020-03-06 23:00:00 -0.8 4 Sudoeste 8 Noroeste 0 -- -- 86
2020-03-06 22:00:00 1.9 4 Oeste 14 Oeste 0 -- -- 74
2020-03-06 21:00:00 5 10 Noroeste 21 Oeste 0 -- -- 60
2020-03-06 20:00:00 6 13 Oeste 30 Oeste 0 -- -- 57
2020-03-06 19:00:00 7.5 17 Oeste 40 Oeste 0 -- -- 56
2020-03-06 18:00:00 8.6 26 Oeste 47 Oeste 0 -- -- 48
2020-03-06 17:00:00 8.6 29 Noroeste 44 Oeste 0 -- -- 44
2020-03-06 16:00:00 10 26 Noroeste 42 Oeste 0 -- -- 46
2020-03-06 15:00:00 8.9 25 Noroeste 46 Oeste 0 -- -- 50
2020-03-06 14:00:00 8.3 33 Noroeste 49 Noroeste 0 -- -- 51
2020-03-06 13:00:00 7.8 33 Oeste 53 Oeste 0 -- -- 52
2020-03-06 12:00:00 7.3 30 Oeste 55 Oeste 0 -- -- 60
2020-03-06 11:00:00 6.4 23 Oeste 46 Oeste 0 -- -- 72
2020-03-06 10:00:00 5.4 21 Oeste 42 Sudoeste 0 -- -- 74
2020-03-06 09:00:00 4.3 18 Oeste 38 Oeste 0 -- -- 81
2020-03-06 08:00:00 3.6 17 Oeste 39 Oeste 0 -- -- 85
2020-03-06 07:00:00 3.9 13 Oeste 32 Oeste 0 -- -- 88
2020-03-06 06:00:00 4.9 21 Oeste 37 Oeste 0 -- -- 87
2020-03-06 05:00:00 4.9 19 Sudoeste 38 Sudoeste 0 -- -- 89
2020-03-06 04:00:00 4.6 12 Oeste 31 Sudoeste 0 -- -- 90
2020-03-06 03:00:00 4.4 11 Sudoeste 22 Sudoeste 0 -- -- 89
2020-03-06 02:00:00 3.6 9 Oeste 17 Sudoeste 0 -- -- 90
2020-03-06 01:00:00 3.9 7 Sudoeste 22 Sudoeste 0 -- -- 85
2020-03-06 00:00:00 5.3 15 Oeste 36 Oeste 0 -- -- 82
2020-03-05 23:00:00 6.1 17 Oeste 33 Oeste 0 -- -- 83
2020-03-05 22:00:00 7 15 Oeste 24 Oeste 0 -- -- 80
2020-03-05 21:00:00 8.1 16 Oeste 25 Oeste 0 -- -- 70
2020-03-05 20:00:00 8.5 12 Oeste 46 Oeste 0 -- -- 71
2020-03-05 19:00:00 10.3 19 Oeste 41 Oeste 0 -- -- 72
2020-03-05 18:00:00 10.9 22 Oeste 49 Oeste 0 -- -- 66
2020-03-05 17:00:00 11.7 25 Oeste 46 Oeste 0 -- -- 60
2020-03-05 16:00:00 11.6 24 Oeste 49 Oeste 0 -- -- 62
2020-03-05 15:00:00 11.7 26 Oeste 52 Oeste 0 -- -- 59
2020-03-05 14:00:00 11.1 27 Oeste 54 Oeste 0 -- -- 61
2020-03-05 13:00:00 10 31 Oeste 52 Oeste 0 -- -- 64
2020-03-05 12:00:00 9.4 27 Oeste 55 Oeste 0 -- -- 71
2020-03-05 11:00:00 8.2 21 Oeste 54 Oeste 0.2 -- -- 83
2020-03-05 10:00:00 8.7 32 Oeste 63 Oeste 0.8 -- -- 85
2020-03-05 09:00:00 10.8 21 Sudoeste 47 Sudoeste 0 -- -- 81
2020-03-05 08:00:00 10.5 17 Sudoeste 41 Sudoeste 0 -- -- 82
2020-03-05 07:00:00 10.4 18 Sudoeste 38 Sudoeste 0 -- -- 83
2020-03-05 06:00:00 10.6 14 Sudoeste 33 Sudoeste 0 -- -- 86
2020-03-05 05:00:00 10.7 15 Sudoeste 29 Sudoeste 0 -- -- 85
2020-03-05 04:00:00 10.2 8 Sudoeste 18 Sudoeste 0 -- -- 87
2020-03-05 03:00:00 10.7 10 Sudoeste 24 Sudoeste 0 -- -- 85
2020-03-05 02:00:00 10.9 6 Sudoeste 22 Sudoeste 0 -- -- 85
2020-03-05 01:00:00 10.7 9 Sudoeste 21 Sudoeste 0 -- -- 86
2020-03-05 00:00:00 10.9 6 Sudoeste 14 Sudoeste 0 -- -- 84
2020-03-04 23:00:00 10.4 5 Sudoeste 10 Sudoeste 0 -- -- 85
2020-03-04 22:00:00 10.5 4 Sudoeste 13 Sudoeste 0 -- -- 84
2020-03-04 21:00:00 11.3 4 Sudoeste 13 Sur 0 -- -- 80
2020-03-04 20:00:00 11.7 6 Sudoeste 19 Sudoeste 0 -- -- 78
2020-03-04 19:00:00 12.5 7 Sudoeste 30 Sudoeste 0 -- -- 74
2020-03-04 18:00:00 13.1 11 Sudoeste 24 Sudoeste 0 -- -- 72
2020-03-04 17:00:00 13.2 13 Sudoeste 29 Sudoeste 0 -- -- 71
2020-03-04 16:00:00 13.3 16 Sudoeste 25 Sudoeste 0 -- -- 71
2020-03-04 15:00:00 13.6 15 Oeste 28 Sudoeste 0 -- -- 68
2020-03-04 14:00:00 12.8 15 Sudoeste 28 Sudoeste 0 -- -- 76
2020-03-04 13:00:00 12.1 14 Sudoeste 30 Sudoeste 0 -- -- 79
2020-03-04 12:00:00 11.6 14 Oeste 30 Oeste 0 -- -- 81
2020-03-04 11:00:00 11 12 Sudoeste 27 Sudoeste 0 -- -- 88
2020-03-04 10:00:00 10 12 Sudoeste 30 Oeste 0 -- -- 95
2020-03-04 09:00:00 10 13 Sudoeste 27 Sudoeste 0 -- -- 92
2020-03-04 08:00:00 10 9 Sudoeste 24 Oeste 0 -- -- 93
2020-03-04 07:00:00 10.2 10 Sudoeste 24 Sudoeste 0 -- -- 94
2020-03-04 06:00:00 10.4 11 Sudoeste 25 Sudoeste 0 -- -- 95
2020-03-04 05:00:00 10.4 11 Sudoeste 31 Sudoeste 0 -- -- 97
2020-03-04 04:00:00 10.7 16 Sudoeste 28 Sudoeste 0 -- -- 97
2020-03-04 03:00:00 10.9 13 Sudoeste 32 Sudoeste 0 -- -- 96
2020-03-04 02:00:00 11.2 10 Sudoeste 24 Sudoeste 0 -- -- 93
2020-03-04 01:00:00 11.1 11 Sudoeste 26 Sudoeste 0 -- -- 91
2020-03-04 00:00:00 11.7 8 Sudoeste 22 Oeste 0 -- -- 89
2020-03-03 23:00:00 11.6 13 Oeste 26 Oeste 0 -- -- 85
2020-03-03 22:00:00 11.5 13 Oeste 26 Oeste 0 -- -- 85
2020-03-03 21:00:00 12 12 Oeste 38 Oeste 0 -- -- 85
2020-03-03 20:00:00 13.1 19 Oeste 38 Oeste 0 -- -- 81
2020-03-03 19:00:00 13.9 22 Oeste 48 Oeste 0 -- -- 73
2020-03-03 18:00:00 15.1 24 Oeste 51 Oeste 0 -- -- 62
2020-03-03 17:00:00 15.7 29 Oeste 57 Oeste 0 -- -- 66
2020-03-03 16:00:00 15.6 37 Oeste 61 Oeste 0 -- -- 67
2020-03-03 15:00:00 14.1 28 Oeste 50 Oeste 0.2 -- -- 76
2020-03-03 14:00:00 10.8 18 Oeste 38 Oeste 0 -- -- 93
2020-03-03 13:00:00 9.3 19 Sudoeste 38 Oeste 0.2 -- -- 98
2020-03-03 12:00:00 8 16 Sudoeste 39 Sudoeste 0.4 -- -- 98
2020-03-03 11:00:00 7 18 Sudoeste 34 Sudoeste 0 -- -- 96
2020-03-03 10:00:00 6.3 19 Sudoeste 42 Oeste 0.2 -- -- 94
2020-03-03 09:00:00 5.5 14 Sudoeste 45 Sudoeste 0 -- -- 96
2020-03-03 08:00:00 5.2 20 Sudoeste 42 Sudoeste 0 -- -- 91
2020-03-03 07:00:00 5 14 Sudoeste 31 Sudoeste 0.6 -- -- 92
2020-03-03 06:00:00 4.3 10 Sudoeste 23 Sudoeste 0.8 -- -- 93
2020-03-03 05:00:00 4.9 12 Sudoeste 31 Sudoeste 0 -- -- 84
2020-03-03 04:00:00 4.9 13 Sudoeste 27 Sudoeste 0 -- -- 81
2020-03-03 03:00:00 4.8 12 Sudoeste 32 Sudoeste 0 -- -- 79
2020-03-03 02:00:00 4.5 11 Sudoeste 21 Sudoeste 0 -- -- 79
2020-03-03 01:00:00 3.9 11 Oeste 20 Oeste 0 -- -- 82
2020-03-03 00:00:00 3.5 9 Sudoeste 22 Sudoeste 0 -- -- 81